Pocono Lake, Pennsylvania
Current Conditions -  °F | °C
As of 6:53 PM on Thursday 18 Dec 2014 (Local Time) from KMPO Reporting Station
Overcast Overcast  
Wind Chill: 20°   Ceiling: 1100
Heat Index: 30°   Visibility: 10mi
Dew Point: 24°   Wind: 14mph
Humidity: 79%   Direction: 310°NW
Pressure: 29.91"   Gusts: 24mph
Location:  41.09°N, 75.58°W
Report Text: KMPO 182353Z AUTO 31012G21KT 10SM OVC011 M01/M04 A2991 RMK AO2 PK WND 32028/2319 SLP150 T10111044 11006 21011 55002
Loading
Personal Weather Stations






























Interactive Weather Map New forecast layout! Learn more

10-Day Weather Forecast

Advertisements
Track Severe Weather on mobile